sensor_id;sensor_type;location;lat;lon;timestamp;P1;durP1;ratioP1;P2;durP2;ratioP2
30862;SDS011;17573;55.922;37.540;2023-01-04T00:01:58;2.88;;;2.75;;
30862;SDS011;17573;55.922;37.540;2023-01-04T00:04:30;3.97;;;3.75;;
30862;SDS011;17573;55.922;37.540;2023-01-04T00:07:23;4.20;;;3.90;;
30862;SDS011;17573;55.922;37.540;2023-01-04T00:09:55;6.13;;;3.88;;
30862;SDS011;17573;55.922;37.540;2023-01-04T00:12:48;4.85;;;4.45;;
30862;SDS011;17573;55.922;37.540;2023-01-04T00:15:21;4.70;;;4.30;;
30862;SDS011;17573;55.922;37.540;2023-01-04T00:18:13;4.85;;;4.35;;
30862;SDS011;17573;55.922;37.540;2023-01-04T00:20:45;6.03;;;4.22;;
30862;SDS011;17573;55.922;37.540;2023-01-04T00:23:39;5.38;;;4.88;;
30862;SDS011;17573;55.922;37.540;2023-01-04T00:26:14;6.18;;;5.13;;
30862;SDS011;17573;55.922;37.540;2023-01-04T00:29:10;6.60;;;5.57;;
30862;SDS011;17573;55.922;37.540;2023-01-04T00:31:43;6.25;;;4.40;;
30862;SDS011;17573;55.922;37.540;2023-01-04T00:34:36;7.15;;;4.75;;
30862;SDS011;17573;55.922;37.540;2023-01-04T00:37:09;6.45;;;5.30;;
30862;SDS011;17573;55.922;37.540;2023-01-04T00:40:01;6.13;;;5.47;;
30862;SDS011;17573;55.922;37.540;2023-01-04T00:42:34;7.00;;;6.00;;
30862;SDS011;17573;55.922;37.540;2023-01-04T00:45:27;11.38;;;6.35;;
30862;SDS011;17573;55.922;37.540;2023-01-04T00:47:59;8.77;;;5.72;;
30862;SDS011;17573;55.922;37.540;2023-01-04T00:50:52;9.20;;;6.35;;
30862;SDS011;17573;55.922;37.540;2023-01-04T00:53:24;7.32;;;6.13;;
30862;SDS011;17573;55.922;37.540;2023-01-04T00:56:17;9.63;;;6.32;;
30862;SDS011;17573;55.922;37.540;2023-01-04T00:58:52;6.97;;;6.15;;
30862;SDS011;17573;55.922;37.540;2023-01-04T01:01:46;6.30;;;5.72;;
30862;SDS011;17573;55.922;37.540;2023-01-04T01:04:20;7.15;;;5.90;;
30862;SDS011;17573;55.922;37.540;2023-01-04T01:07:13;8.82;;;5.53;;
30862;SDS011;17573;55.922;37.540;2023-01-04T01:09:45;7.85;;;6.25;;
30862;SDS011;17573;55.922;37.540;2023-01-04T01:12:38;6.68;;;5.95;;
30862;SDS011;17573;55.922;37.540;2023-01-04T01:15:11;7.80;;;5.70;;
30862;SDS011;17573;55.922;37.540;2023-01-04T01:18:03;6.38;;;5.78;;
30862;SDS011;17573;55.922;37.540;2023-01-04T01:20:42;7.00;;;6.30;;
30862;SDS011;17573;55.922;37.540;2023-01-04T01:23:36;8.88;;;7.65;;
30862;SDS011;17573;55.922;37.540;2023-01-04T01:26:11;7.18;;;5.95;;
30862;SDS011;17573;55.922;37.540;2023-01-04T01:29:05;9.93;;;6.70;;
30862;SDS011;17573;55.922;37.540;2023-01-04T01:31:38;7.53;;;5.30;;
30862;SDS011;17573;55.922;37.540;2023-01-04T01:34:31;9.07;;;7.00;;
30862;SDS011;17573;55.922;37.540;2023-01-04T01:37:04;6.93;;;5.57;;
30862;SDS011;17573;55.922;37.540;2023-01-04T01:39:56;7.47;;;6.63;;
30862;SDS011;17573;55.922;37.540;2023-01-04T01:42:28;7.05;;;6.32;;
30862;SDS011;17573;55.922;37.540;2023-01-04T01:48:05;6.85;;;5.93;;
30862;SDS011;17573;55.922;37.540;2023-01-04T01:51:00;10.55;;;6.32;;
30862;SDS011;17573;55.922;37.540;2023-01-04T01:53:35;7.93;;;5.78;;
30862;SDS011;17573;55.922;37.540;2023-01-04T01:56:29;7.00;;;6.30;;
30862;SDS011;17573;55.922;37.540;2023-01-04T01:59:05;6.88;;;5.75;;
30862;SDS011;17573;55.922;37.540;2023-01-04T02:01:58;7.43;;;5.95;;
30862;SDS011;17573;55.922;37.540;2023-01-04T02:04:30;7.38;;;6.20;;
30862;SDS011;17573;55.922;37.540;2023-01-04T02:07:24;7.72;;;6.90;;
30862;SDS011;17573;55.922;37.540;2023-01-04T02:09:57;6.43;;;5.70;;
30862;SDS011;17573;55.922;37.540;2023-01-04T02:12:50;8.95;;;7.10;;
30862;SDS011;17573;55.922;37.540;2023-01-04T02:15:24;10.40;;;7.15;;
30862;SDS011;17573;55.922;37.540;2023-01-04T02:18:21;7.05;;;6.15;;
30862;SDS011;17573;55.922;37.540;2023-01-04T02:21:12;6.72;;;5.85;;
30862;SDS011;17573;55.922;37.540;2023-01-04T02:35:42;8.35;;;7.55;;
30862;SDS011;17573;55.922;37.540;2023-01-04T02:41:42;7.78;;;6.78;;
30862;SDS011;17573;55.922;37.540;2023-01-04T02:47:50;7.07;;;6.38;;
30862;SDS011;17573;55.922;37.540;2023-01-04T02:50:55;9.18;;;6.72;;
30862;SDS011;17573;55.922;37.540;2023-01-04T02:53:48;7.95;;;6.18;;
30862;SDS011;17573;55.922;37.540;2023-01-04T02:56:28;9.07;;;6.55;;
30862;SDS011;17573;55.922;37.540;2023-01-04T03:06:16;6.78;;;5.97;;
30862;SDS011;17573;55.922;37.540;2023-01-04T03:12:18;7.72;;;5.68;;
30862;SDS011;17573;55.922;37.540;2023-01-04T03:15:20;8.93;;;6.45;;
30862;SDS011;17573;55.922;37.540;2023-01-04T03:18:17;6.07;;;5.47;;
30862;SDS011;17573;55.922;37.540;2023-01-04T03:20:53;6.82;;;5.82;;
30862;SDS011;17573;55.922;37.540;2023-01-04T03:23:47;5.80;;;5.15;;
30862;SDS011;17573;55.922;37.540;2023-01-04T03:26:43;6.75;;;6.03;;
30862;SDS011;17573;55.922;37.540;2023-01-04T03:29:58;8.25;;;5.85;;
30862;SDS011;17573;55.922;37.540;2023-01-04T03:33:03;7.57;;;6.38;;
30862;SDS011;17573;55.922;37.540;2023-01-04T03:39:08;6.10;;;5.05;;
30862;SDS011;17573;55.922;37.540;2023-01-04T03:45:47;6.55;;;5.85;;
30862;SDS011;17573;55.922;37.540;2023-01-04T03:49:08;10.10;;;6.40;;
30862;SDS011;17573;55.922;37.540;2023-01-04T03:51:44;7.38;;;5.45;;
30862;SDS011;17573;55.922;37.540;2023-01-04T03:54:39;5.93;;;5.32;;
30862;SDS011;17573;55.922;37.540;2023-01-04T03:57:15;6.60;;;5.68;;
30862;SDS011;17573;55.922;37.540;2023-01-04T04:00:10;8.25;;;5.97;;
30862;SDS011;17573;55.922;37.540;2023-01-04T04:02:44;6.78;;;5.88;;
30862;SDS011;17573;55.922;37.540;2023-01-04T04:05:39;8.63;;;4.75;;
30862;SDS011;17573;55.922;37.540;2023-01-04T04:08:31;6.07;;;5.47;;
30862;SDS011;17573;55.922;37.540;2023-01-04T04:11:24;7.47;;;6.72;;
30862;SDS011;17573;55.922;37.540;2023-01-04T04:14:02;7.05;;;6.25;;
30862;SDS011;17573;55.922;37.540;2023-01-04T04:16:55;6.57;;;5.85;;
30862;SDS011;17573;55.922;37.540;2023-01-04T04:19:27;6.43;;;5.72;;
30862;SDS011;17573;55.922;37.540;2023-01-04T04:22:20;7.75;;;6.95;;
30862;SDS011;17573;55.922;37.540;2023-01-04T04:24:52;5.63;;;4.70;;
30862;SDS011;17573;55.922;37.540;2023-01-04T04:27:45;5.22;;;4.70;;
30862;SDS011;17573;55.922;37.540;2023-01-04T04:30:17;7.40;;;5.38;;
30862;SDS011;17573;55.922;37.540;2023-01-04T04:33:10;7.10;;;5.68;;
30862;SDS011;17573;55.922;37.540;2023-01-04T04:35:43;6.00;;;5.40;;
30862;SDS011;17573;55.922;37.540;2023-01-04T04:38:35;7.57;;;6.13;;
30862;SDS011;17573;55.922;37.540;2023-01-04T04:41:08;6.22;;;5.63;;
30862;SDS011;17573;55.922;37.540;2023-01-04T04:44:19;6.07;;;5.25;;
30862;SDS011;17573;55.922;37.540;2023-01-04T04:46:51;8.02;;;5.25;;
30862;SDS011;17573;55.922;37.540;2023-01-04T04:49:45;6.13;;;5.63;;
30862;SDS011;17573;55.922;37.540;2023-01-04T04:52:18;4.68;;;4.22;;
30862;SDS011;17573;55.922;37.540;2023-01-04T04:55:10;9.20;;;4.97;;
30862;SDS011;17573;55.922;37.540;2023-01-04T04:57:42;5.47;;;5.05;;
30862;SDS011;17573;55.922;37.540;2023-01-04T05:00:35;6.00;;;5.38;;
30862;SDS011;17573;55.922;37.540;2023-01-04T05:03:07;6.25;;;5.40;;
30862;SDS011;17573;55.922;37.540;2023-01-04T05:06:00;7.07;;;5.55;;
30862;SDS011;17573;55.922;37.540;2023-01-04T05:08:33;5.35;;;4.60;;
30862;SDS011;17573;55.922;37.540;2023-01-04T05:11:25;6.25;;;4.97;;
30862;SDS011;17573;55.922;37.540;2023-01-04T05:14:15;5.97;;;5.15;;
30862;SDS011;17573;55.922;37.540;2023-01-04T05:17:08;6.00;;;5.32;;
30862;SDS011;17573;55.922;37.540;2023-01-04T05:19:40;8.55;;;5.32;;
30862;SDS011;17573;55.922;37.540;2023-01-04T05:22:33;6.30;;;5.28;;
30862;SDS011;17573;55.922;37.540;2023-01-04T05:25:06;11.57;;;5.82;;
30862;SDS011;17573;55.922;37.540;2023-01-04T05:27:59;6.75;;;5.90;;
30862;SDS011;17573;55.922;37.540;2023-01-04T05:30:33;6.13;;;5.25;;
30862;SDS011;17573;55.922;37.540;2023-01-04T05:33:37;4.82;;;4.43;;
30862;SDS011;17573;55.922;37.540;2023-01-04T05:36:10;5.43;;;4.90;;
30862;SDS011;17573;55.922;37.540;2023-01-04T05:39:02;6.43;;;4.93;;
30862;SDS011;17573;55.922;37.540;2023-01-04T05:41:34;4.95;;;4.45;;
30862;SDS011;17573;55.922;37.540;2023-01-04T05:47:17;6.43;;;5.32;;
30862;SDS011;17573;55.922;37.540;2023-01-04T05:50:10;7.28;;;6.10;;
30862;SDS011;17573;55.922;37.540;2023-01-04T05:52:42;8.35;;;5.63;;
30862;SDS011;17573;55.922;37.540;2023-01-04T05:55:35;6.45;;;5.55;;
30862;SDS011;17573;55.922;37.540;2023-01-04T05:58:08;7.55;;;5.43;;
30862;SDS011;17573;55.922;37.540;2023-01-04T06:01:01;7.10;;;5.50;;
30862;SDS011;17573;55.922;37.540;2023-01-04T06:03:33;7.57;;;4.88;;
30862;SDS011;17573;55.922;37.540;2023-01-04T06:06:26;5.03;;;4.63;;
30862;SDS011;17573;55.922;37.540;2023-01-04T06:08:58;8.13;;;6.03;;
30862;SDS011;17573;55.922;37.540;2023-01-04T06:11:51;7.80;;;5.57;;
30862;SDS011;17573;55.922;37.540;2023-01-04T06:14:23;6.38;;;5.75;;
30862;SDS011;17573;55.922;37.540;2023-01-04T06:17:16;5.28;;;4.85;;
30862;SDS011;17573;55.922;37.540;2023-01-04T06:19:48;5.70;;;5.15;;
30862;SDS011;17573;55.922;37.540;2023-01-04T06:22:41;6.05;;;5.55;;
30862;SDS011;17573;55.922;37.540;2023-01-04T06:25:14;6.18;;;5.57;;
30862;SDS011;17573;55.922;37.540;2023-01-04T06:28:06;5.07;;;4.65;;
30862;SDS011;17573;55.922;37.540;2023-01-04T06:30:39;5.28;;;4.85;;
30862;SDS011;17573;55.922;37.540;2023-01-04T06:33:31;5.10;;;4.60;;
30862;SDS011;17573;55.922;37.540;2023-01-04T06:36:05;5.82;;;5.32;;
30862;SDS011;17573;55.922;37.540;2023-01-04T06:38:59;6.32;;;5.32;;
30862;SDS011;17573;55.922;37.540;2023-01-04T06:41:32;5.63;;;4.72;;
30862;SDS011;17573;55.922;37.540;2023-01-04T06:44:25;6.10;;;5.60;;
30862;SDS011;17573;55.922;37.540;2023-01-04T06:46:57;5.88;;;5.22;;
30862;SDS011;17573;55.922;37.540;2023-01-04T06:49:50;5.55;;;5.00;;
30862;SDS011;17573;55.922;37.540;2023-01-04T06:52:22;5.90;;;5.40;;
30862;SDS011;17573;55.922;37.540;2023-01-04T06:55:15;6.68;;;5.47;;
30862;SDS011;17573;55.922;37.540;2023-01-04T06:57:47;5.55;;;5.05;;
30862;SDS011;17573;55.922;37.540;2023-01-04T07:00:40;7.80;;;4.72;;
30862;SDS011;17573;55.922;37.540;2023-01-04T07:03:12;6.65;;;5.45;;
30862;SDS011;17573;55.922;37.540;2023-01-04T07:06:06;7.72;;;5.68;;
30862;SDS011;17573;55.922;37.540;2023-01-04T07:08:39;9.95;;;5.15;;
30862;SDS011;17573;55.922;37.540;2023-01-04T07:11:31;5.60;;;5.05;;
30862;SDS011;17573;55.922;37.540;2023-01-04T07:14:03;6.63;;;5.28;;
30862;SDS011;17573;55.922;37.540;2023-01-04T07:16:56;6.28;;;4.70;;
30862;SDS011;17573;55.922;37.540;2023-01-04T07:19:28;6.43;;;5.82;;
30862;SDS011;17573;55.922;37.540;2023-01-04T07:22:21;9.70;;;5.90;;
30862;SDS011;17573;55.922;37.540;2023-01-04T07:24:53;5.47;;;4.80;;
30862;SDS011;17573;55.922;37.540;2023-01-04T07:27:50;6.20;;;5.35;;
30862;SDS011;17573;55.922;37.540;2023-01-04T07:30:23;5.85;;;5.35;;
30862;SDS011;17573;55.922;37.540;2023-01-04T07:33:16;5.45;;;4.95;;
30862;SDS011;17573;55.922;37.540;2023-01-04T07:35:49;6.07;;;4.68;;
30862;SDS011;17573;55.922;37.540;2023-01-04T07:38:41;7.72;;;6.63;;
30862;SDS011;17573;55.922;37.540;2023-01-04T07:41:14;5.95;;;5.35;;
30862;SDS011;17573;55.922;37.540;2023-01-04T07:44:07;8.38;;;4.72;;
30862;SDS011;17573;55.922;37.540;2023-01-04T07:46:41;6.07;;;5.53;;
30862;SDS011;17573;55.922;37.540;2023-01-04T07:49:33;15.02;;;6.00;;
30862;SDS011;17573;55.922;37.540;2023-01-04T07:52:06;6.10;;;5.30;;
30862;SDS011;17573;55.922;37.540;2023-01-04T07:54:58;6.57;;;5.50;;
30862;SDS011;17573;55.922;37.540;2023-01-04T07:57:31;8.40;;;6.93;;
30862;SDS011;17573;55.922;37.540;2023-01-04T08:00:23;14.68;;;7.18;;
30862;SDS011;17573;55.922;37.540;2023-01-04T08:02:56;11.30;;;7.35;;
30862;SDS011;17573;55.922;37.540;2023-01-04T08:05:48;10.50;;;7.60;;
30862;SDS011;17573;55.922;37.540;2023-01-04T08:08:21;11.43;;;8.73;;
30862;SDS011;17573;55.922;37.540;2023-01-04T08:11:14;9.95;;;7.88;;
30862;SDS011;17573;55.922;37.540;2023-01-04T08:13:48;11.90;;;8.77;;
30862;SDS011;17573;55.922;37.540;2023-01-04T08:16:41;15.27;;;9.02;;
30862;SDS011;17573;55.922;37.540;2023-01-04T08:19:15;12.57;;;9.07;;
30862;SDS011;17573;55.922;37.540;2023-01-04T08:22:09;13.27;;;9.85;;
30862;SDS011;17573;55.922;37.540;2023-01-04T08:24:41;16.58;;;9.98;;
30862;SDS011;17573;55.922;37.540;2023-01-04T08:27:34;13.05;;;8.98;;
30862;SDS011;17573;55.922;37.540;2023-01-04T08:30:07;14.60;;;11.18;;
30862;SDS011;17573;55.922;37.540;2023-01-04T08:33:00;13.73;;;9.25;;
30862;SDS011;17573;55.922;37.540;2023-01-04T08:35:32;14.77;;;10.30;;
30862;SDS011;17573;55.922;37.540;2023-01-04T08:38:25;15.85;;;9.88;;
30862;SDS011;17573;55.922;37.540;2023-01-04T08:40:57;18.85;;;10.82;;
30862;SDS011;17573;55.922;37.540;2023-01-04T08:43:50;16.20;;;10.57;;
30862;SDS011;17573;55.922;37.540;2023-01-04T08:46:22;18.63;;;10.52;;
30862;SDS011;17573;55.922;37.540;2023-01-04T08:49:15;14.27;;;9.93;;
30862;SDS011;17573;55.922;37.540;2023-01-04T08:51:47;14.18;;;10.32;;
30862;SDS011;17573;55.922;37.540;2023-01-04T08:54:40;15.88;;;11.30;;
30862;SDS011;17573;55.922;37.540;2023-01-04T08:57:12;16.48;;;10.27;;
30862;SDS011;17573;55.922;37.540;2023-01-04T09:00:06;16.05;;;12.27;;
30862;SDS011;17573;55.922;37.540;2023-01-04T09:02:40;18.67;;;12.30;;
30862;SDS011;17573;55.922;37.540;2023-01-04T09:05:32;14.23;;;9.77;;
30862;SDS011;17573;55.922;37.540;2023-01-04T09:08:05;11.68;;;8.93;;
30862;SDS011;17573;55.922;37.540;2023-01-04T09:10:58;14.52;;;10.50;;
30862;SDS011;17573;55.922;37.540;2023-01-04T09:13:37;13.40;;;9.73;;
30862;SDS011;17573;55.922;37.540;2023-01-04T09:16:29;15.68;;;10.70;;
30862;SDS011;17573;55.922;37.540;2023-01-04T09:19:02;15.15;;;11.23;;
30862;SDS011;17573;55.922;37.540;2023-01-04T09:21:55;18.33;;;11.18;;
30862;SDS011;17573;55.922;37.540;2023-01-04T09:24:27;18.25;;;11.43;;
30862;SDS011;17573;55.922;37.540;2023-01-04T09:27:20;17.13;;;11.20;;
30862;SDS011;17573;55.922;37.540;2023-01-04T09:29:53;17.08;;;11.82;;
30862;SDS011;17573;55.922;37.540;2023-01-04T09:32:45;15.07;;;11.63;;
30862;SDS011;17573;55.922;37.540;2023-01-04T09:35:19;15.15;;;10.57;;
30862;SDS011;17573;55.922;37.540;2023-01-04T09:38:11;17.02;;;10.82;;
30862;SDS011;17573;55.922;37.540;2023-01-04T09:40:55;17.45;;;9.77;;
30862;SDS011;17573;55.922;37.540;2023-01-04T09:44:01;15.88;;;11.35;;
30862;SDS011;17573;55.922;37.540;2023-01-04T09:52:25;15.90;;;10.27;;
30862;SDS011;17573;55.922;37.540;2023-01-04T09:55:27;14.50;;;10.13;;
30862;SDS011;17573;55.922;37.540;2023-01-04T09:58:04;22.98;;;11.98;;
30862;SDS011;17573;55.922;37.540;2023-01-04T10:03:39;14.13;;;10.02;;
30862;SDS011;17573;55.922;37.540;2023-01-04T10:06:33;11.38;;;8.55;;
30862;SDS011;17573;55.922;37.540;2023-01-04T10:09:08;11.68;;;8.68;;
30862;SDS011;17573;55.922;37.540;2023-01-04T10:27:02;8.25;;;7.00;;
30862;SDS011;17573;55.922;37.540;2023-01-04T10:36:09;8.40;;;6.35;;
30862;SDS011;17573;55.922;37.540;2023-01-04T10:38:49;12.90;;;6.88;;
30862;SDS011;17573;55.922;37.540;2023-01-04T10:48:12;9.20;;;6.20;;
30862;SDS011;17573;55.922;37.540;2023-01-04T10:53:47;8.82;;;7.35;;
30862;SDS011;17573;55.922;37.540;2023-01-04T11:11:03;9.88;;;7.20;;
30862;SDS011;17573;55.922;37.540;2023-01-04T11:13:39;11.82;;;6.75;;
30862;SDS011;17573;55.922;37.540;2023-01-04T11:16:31;5.93;;;5.20;;
30862;SDS011;17573;55.922;37.540;2023-01-04T11:19:04;8.25;;;5.38;;
30862;SDS011;17573;55.922;37.540;2023-01-04T11:24:37;6.88;;;5.88;;
30862;SDS011;17573;55.922;37.540;2023-01-04T11:27:33;5.10;;;4.60;;
30862;SDS011;17573;55.922;37.540;2023-01-04T11:30:20;6.15;;;5.65;;
30862;SDS011;17573;55.922;37.540;2023-01-04T11:33:16;5.55;;;4.93;;
30862;SDS011;17573;55.922;37.540;2023-01-04T11:35:50;6.57;;;5.05;;
30862;SDS011;17573;55.922;37.540;2023-01-04T11:38:53;5.93;;;4.75;;
30862;SDS011;17573;55.922;37.540;2023-01-04T11:41:27;8.23;;;5.65;;
30862;SDS011;17573;55.922;37.540;2023-01-04T11:44:20;7.32;;;6.60;;
30862;SDS011;17573;55.922;37.540;2023-01-04T11:47:07;5.88;;;5.28;;
30862;SDS011;17573;55.922;37.540;2023-01-04T11:50:25;6.82;;;5.38;;
30862;SDS011;17573;55.922;37.540;2023-01-04T11:53:21;6.50;;;5.90;;
30862;SDS011;17573;55.922;37.540;2023-01-04T11:59:02;6.35;;;5.55;;
30862;SDS011;17573;55.922;37.540;2023-01-04T12:04:46;7.82;;;5.63;;
30862;SDS011;17573;55.922;37.540;2023-01-04T12:07:39;8.57;;;6.32;;
30862;SDS011;17573;55.922;37.540;2023-01-04T12:10:22;7.63;;;5.60;;
30862;SDS011;17573;55.922;37.540;2023-01-04T12:13:15;7.68;;;6.72;;
30862;SDS011;17573;55.922;37.540;2023-01-04T12:18:59;6.70;;;5.45;;
30862;SDS011;17573;55.922;37.540;2023-01-04T12:21:32;6.32;;;5.70;;
30862;SDS011;17573;55.922;37.540;2023-01-04T12:24:30;6.07;;;5.57;;
30862;SDS011;17573;55.922;37.540;2023-01-04T12:27:04;8.82;;;6.15;;
30862;SDS011;17573;55.922;37.540;2023-01-04T12:30:06;7.97;;;5.63;;
30862;SDS011;17573;55.922;37.540;2023-01-04T12:32:59;7.43;;;5.60;;
30862;SDS011;17573;55.922;37.540;2023-01-04T12:36:01;6.30;;;5.53;;
30862;SDS011;17573;55.922;37.540;2023-01-04T12:47:38;6.43;;;5.90;;
30862;SDS011;17573;55.922;37.540;2023-01-04T12:50:32;8.88;;;5.30;;
30862;SDS011;17573;55.922;37.540;2023-01-04T12:54:24;5.90;;;5.28;;
30862;SDS011;17573;55.922;37.540;2023-01-04T13:05:37;5.28;;;4.32;;
30862;SDS011;17573;55.922;37.540;2023-01-04T13:08:12;7.63;;;6.38;;
30862;SDS011;17573;55.922;37.540;2023-01-04T13:11:17;6.43;;;5.45;;
30862;SDS011;17573;55.922;37.540;2023-01-04T13:15:11;7.07;;;4.97;;
30862;SDS011;17573;55.922;37.540;2023-01-04T13:17:37;6.22;;;5.47;;
30862;SDS011;17573;55.922;37.540;2023-01-04T13:20:19;6.63;;;5.47;;
30862;SDS011;17573;55.922;37.540;2023-01-04T13:23:14;6.20;;;5.60;;
30862;SDS011;17573;55.922;37.540;2023-01-04T13:25:49;5.65;;;5.15;;
30862;SDS011;17573;55.922;37.540;2023-01-04T13:28:42;5.78;;;5.38;;
30862;SDS011;17573;55.922;37.540;2023-01-04T13:31:15;7.00;;;5.15;;
30862;SDS011;17573;55.922;37.540;2023-01-04T13:34:29;5.03;;;4.53;;
30862;SDS011;17573;55.922;37.540;2023-01-04T13:37:58;5.35;;;4.85;;
30862;SDS011;17573;55.922;37.540;2023-01-04T13:40:34;6.03;;;5.47;;
30862;SDS011;17573;55.922;37.540;2023-01-04T13:48:45;9.45;;;5.50;;
30862;SDS011;17573;55.922;37.540;2023-01-04T13:51:40;5.63;;;5.13;;
30862;SDS011;17573;55.922;37.540;2023-01-04T13:54:20;5.72;;;5.18;;
30862;SDS011;17573;55.922;37.540;2023-01-04T13:57:15;7.80;;;6.00;;
30862;SDS011;17573;55.922;37.540;2023-01-04T13:59:52;10.48;;;8.07;;
30862;SDS011;17573;55.922;37.540;2023-01-04T14:05:45;10.05;;;7.05;;
30862;SDS011;17573;55.922;37.540;2023-01-04T14:08:50;10.00;;;7.32;;
30862;SDS011;17573;55.922;37.540;2023-01-04T14:11:43;8.25;;;6.82;;
30862;SDS011;17573;55.922;37.540;2023-01-04T14:14:51;12.15;;;8.18;;
30862;SDS011;17573;55.922;37.540;2023-01-04T14:20:41;9.18;;;7.47;;
30862;SDS011;17573;55.922;37.540;2023-01-04T14:23:47;16.50;;;7.32;;
30862;SDS011;17573;55.922;37.540;2023-01-04T14:26:39;12.55;;;7.50;;
30862;SDS011;17573;55.922;37.540;2023-01-04T14:29:20;14.00;;;7.78;;
30862;SDS011;17573;55.922;37.540;2023-01-04T14:32:12;12.52;;;8.30;;
30862;SDS011;17573;55.922;37.540;2023-01-04T14:34:45;10.15;;;7.68;;
30862;SDS011;17573;55.922;37.540;2023-01-04T14:37:37;11.77;;;7.68;;
30862;SDS011;17573;55.922;37.540;2023-01-04T14:40:26;9.43;;;7.35;;
30862;SDS011;17573;55.922;37.540;2023-01-04T14:46:06;13.82;;;7.63;;
30862;SDS011;17573;55.922;37.540;2023-01-04T14:48:59;13.93;;;8.23;;
30862;SDS011;17573;55.922;37.540;2023-01-04T14:51:33;17.67;;;9.48;;
30862;SDS011;17573;55.922;37.540;2023-01-04T14:54:40;13.20;;;8.75;;
30862;SDS011;17573;55.922;37.540;2023-01-04T14:57:13;18.83;;;8.82;;
30862;SDS011;17573;55.922;37.540;2023-01-04T15:00:07;13.60;;;7.63;;
30862;SDS011;17573;55.922;37.540;2023-01-04T15:02:43;15.57;;;8.35;;
30862;SDS011;17573;55.922;37.540;2023-01-04T15:05:35;9.25;;;7.25;;
30862;SDS011;17573;55.922;37.540;2023-01-04T15:08:09;10.73;;;6.90;;
30862;SDS011;17573;55.922;37.540;2023-01-04T15:11:04;13.43;;;7.18;;
30862;SDS011;17573;55.922;37.540;2023-01-04T15:13:37;13.13;;;8.07;;
30862;SDS011;17573;55.922;37.540;2023-01-04T15:16:29;10.23;;;7.50;;
30862;SDS011;17573;55.922;37.540;2023-01-04T15:19:02;14.98;;;8.45;;
30862;SDS011;17573;55.922;37.540;2023-01-04T15:21:54;13.80;;;8.48;;
30862;SDS011;17573;55.922;37.540;2023-01-04T15:24:27;13.52;;;8.35;;
30862;SDS011;17573;55.922;37.540;2023-01-04T15:27:19;13.48;;;8.52;;
30862;SDS011;17573;55.922;37.540;2023-01-04T15:29:52;23.33;;;8.82;;
30862;SDS011;17573;55.922;37.540;2023-01-04T15:32:44;14.43;;;8.02;;
30862;SDS011;17573;55.922;37.540;2023-01-04T15:35:17;12.52;;;8.95;;
30862;SDS011;17573;55.922;37.540;2023-01-04T15:38:09;10.73;;;7.28;;
30862;SDS011;17573;55.922;37.540;2023-01-04T15:40:42;14.82;;;8.73;;
30862;SDS011;17573;55.922;37.540;2023-01-04T15:43:36;15.43;;;8.45;;
30862;SDS011;17573;55.922;37.540;2023-01-04T15:46:09;21.42;;;8.18;;
30862;SDS011;17573;55.922;37.540;2023-01-04T15:49:01;18.27;;;7.22;;
30862;SDS011;17573;55.922;37.540;2023-01-04T15:51:34;14.90;;;8.07;;
30862;SDS011;17573;55.922;37.540;2023-01-04T15:54:27;14.27;;;7.88;;
30862;SDS011;17573;55.922;37.540;2023-01-04T15:57:00;19.48;;;9.65;;
30862;SDS011;17573;55.922;37.540;2023-01-04T15:59:52;17.13;;;10.10;;
30862;SDS011;17573;55.922;37.540;2023-01-04T16:02:25;13.13;;;8.63;;
30862;SDS011;17573;55.922;37.540;2023-01-04T16:05:18;16.35;;;8.23;;
30862;SDS011;17573;55.922;37.540;2023-01-04T16:07:52;13.65;;;8.60;;
30862;SDS011;17573;55.922;37.540;2023-01-04T16:10:44;14.50;;;8.63;;
30862;SDS011;17573;55.922;37.540;2023-01-04T16:13:17;17.35;;;9.10;;
30862;SDS011;17573;55.922;37.540;2023-01-04T16:16:09;19.20;;;8.68;;
30862;SDS011;17573;55.922;37.540;2023-01-04T16:18:45;14.63;;;7.45;;
30862;SDS011;17573;55.922;37.540;2023-01-04T16:21:40;19.17;;;7.70;;
30862;SDS011;17573;55.922;37.540;2023-01-04T16:24:14;15.75;;;8.63;;
30862;SDS011;17573;55.922;37.540;2023-01-04T16:27:08;22.75;;;9.82;;
30862;SDS011;17573;55.922;37.540;2023-01-04T16:29:41;30.23;;;9.80;;
30862;SDS011;17573;55.922;37.540;2023-01-04T16:32:36;10.65;;;6.75;;
30862;SDS011;17573;55.922;37.540;2023-01-04T16:35:12;16.48;;;7.38;;
30862;SDS011;17573;55.922;37.540;2023-01-04T16:38:04;19.50;;;8.32;;
30862;SDS011;17573;55.922;37.540;2023-01-04T16:40:38;24.33;;;8.75;;
30862;SDS011;17573;55.922;37.540;2023-01-04T16:43:40;14.55;;;8.77;;
30862;SDS011;17573;55.922;37.540;2023-01-04T16:46:33;14.57;;;6.93;;
30862;SDS011;17573;55.922;37.540;2023-01-04T16:49:28;13.60;;;6.95;;
30862;SDS011;17573;55.922;37.540;2023-01-04T16:52:00;14.27;;;8.63;;
30862;SDS011;17573;55.922;37.540;2023-01-04T16:54:54;12.77;;;7.90;;
30862;SDS011;17573;55.922;37.540;2023-01-04T16:57:28;19.73;;;7.10;;
30862;SDS011;17573;55.922;37.540;2023-01-04T17:00:20;10.90;;;6.72;;
30862;SDS011;17573;55.922;37.540;2023-01-04T17:02:54;16.67;;;7.55;;
30862;SDS011;17573;55.922;37.540;2023-01-04T17:05:46;22.65;;;8.77;;
30862;SDS011;17573;55.922;37.540;2023-01-04T17:08:20;12.07;;;6.72;;
30862;SDS011;17573;55.922;37.540;2023-01-04T17:11:15;14.25;;;7.35;;
30862;SDS011;17573;55.922;37.540;2023-01-04T17:13:48;12.20;;;6.97;;
30862;SDS011;17573;55.922;37.540;2023-01-04T17:16:42;18.35;;;7.97;;
30862;SDS011;17573;55.922;37.540;2023-01-04T17:19:15;8.95;;;6.65;;
30862;SDS011;17573;55.922;37.540;2023-01-04T17:22:07;14.50;;;8.13;;
30862;SDS011;17573;55.922;37.540;2023-01-04T17:24:40;12.27;;;7.05;;
30862;SDS011;17573;55.922;37.540;2023-01-04T17:27:33;11.60;;;7.55;;
30862;SDS011;17573;55.922;37.540;2023-01-04T17:30:06;16.25;;;8.80;;
30862;SDS011;17573;55.922;37.540;2023-01-04T17:33:00;14.63;;;7.38;;
30862;SDS011;17573;55.922;37.540;2023-01-04T17:35:37;19.08;;;8.15;;
30862;SDS011;17573;55.922;37.540;2023-01-04T17:38:31;22.33;;;9.63;;
30862;SDS011;17573;55.922;37.540;2023-01-04T17:41:08;13.88;;;8.18;;
30862;SDS011;17573;55.922;37.540;2023-01-04T17:44:02;11.90;;;8.82;;
30862;SDS011;17573;55.922;37.540;2023-01-04T17:46:36;19.38;;;8.65;;
30862;SDS011;17573;55.922;37.540;2023-01-04T17:49:30;12.48;;;8.07;;
30862;SDS011;17573;55.922;37.540;2023-01-04T17:52:04;13.68;;;7.32;;
30862;SDS011;17573;55.922;37.540;2023-01-04T17:54:58;17.27;;;8.35;;
30862;SDS011;17573;55.922;37.540;2023-01-04T17:57:32;12.00;;;7.68;;
30862;SDS011;17573;55.922;37.540;2023-01-04T18:00:25;14.95;;;7.95;;
30862;SDS011;17573;55.922;37.540;2023-01-04T18:02:57;14.98;;;9.70;;
30862;SDS011;17573;55.922;37.540;2023-01-04T18:05:52;11.55;;;6.60;;
30862;SDS011;17573;55.922;37.540;2023-01-04T18:08:25;13.15;;;8.68;;
30862;SDS011;17573;55.922;37.540;2023-01-04T18:11:17;11.13;;;6.80;;
30862;SDS011;17573;55.922;37.540;2023-01-04T18:13:50;19.35;;;8.00;;
30862;SDS011;17573;55.922;37.540;2023-01-04T18:16:43;11.30;;;7.00;;
30862;SDS011;17573;55.922;37.540;2023-01-04T18:19:34;11.80;;;8.27;;
30862;SDS011;17573;55.922;37.540;2023-01-04T18:22:26;14.48;;;8.02;;
30862;SDS011;17573;55.922;37.540;2023-01-04T18:24:59;11.48;;;6.97;;
30862;SDS011;17573;55.922;37.540;2023-01-04T18:27:52;13.75;;;7.78;;
30862;SDS011;17573;55.922;37.540;2023-01-04T18:30:24;10.25;;;7.28;;
30862;SDS011;17573;55.922;37.540;2023-01-04T18:33:16;8.55;;;6.93;;
30862;SDS011;17573;55.922;37.540;2023-01-04T18:35:49;12.27;;;8.15;;